Time;durP1;ratioP1;P1;durP2;ratioP2;P2;SDS_P1;SDS_P2;PMS_P1;PMS_P2;Temp;Humidity;BMP_temperature;BMP_pressure;BME280_temperature;BME280_humidity;BME280_pressure;Samples;Min_cycle;Max_cycle;Signal;HPM_P1;HPM_P2
2023/12/13 19:57:32;;;;;;;19.77;12.77;;;9.90;82.00;;;;;;6155526;22;1629968;-64
2023/12/13 19:59:58;;;;;;;18.85;12.52;;;9.90;81.90;;;;;;6218620;23;20128;-64
2023/12/13 20:02:24;;;;;;;17.95;11.02;;;9.80;81.90;;;;;;6219249;23;20007;-64
2023/12/13 20:04:54;;;;;;;18.38;10.40;;;9.90;81.80;;;;;;6218793;23;19997;-64
2023/12/13 20:07:21;;;;;;;18.17;11.05;;;9.80;81.70;;;;;;6194759;23;20012;-64
2023/12/13 20:09:47;;;;;;;16.70;10.38;;;9.80;81.70;;;;;;6187246;23;20029;-64
2023/12/13 20:12:15;;;;;;;18.35;10.70;;;9.80;81.50;;;;;;6186879;23;20482;-64
2023/12/13 20:14:42;;;;;;;18.92;10.98;;;9.80;81.50;;;;;;6187339;23;20395;-64
2023/12/13 20:17:08;;;;;;;21.52;11.88;;;9.70;81.50;;;;;;6188106;23;20024;-64
2023/12/13 20:19:37;;;;;;;16.92;10.43;;;9.60;81.50;;;;;;6188409;23;20000;-63
2023/12/13 20:22:11;;;;;;;15.18;9.50;;;9.60;81.50;;;;;;6188101;23;20056;-64
2023/12/13 20:24:38;;;;;;;22.85;11.95;;;9.50;81.50;;;;;;6189037;23;20008;-64
2023/12/13 20:27:04;;;;;;;18.95;12.20;;;9.50;81.70;;;;;;6162556;23;20015;-64
2023/12/13 20:29:30;;;;;;;15.38;9.98;;;9.50;81.70;;;;;;6188825;23;20089;-64
2023/12/13 20:31:57;;;;;;;15.70;10.10;;;9.50;81.70;;;;;;6188808;23;20001;-63
2023/12/13 20:34:26;;;;;;;16.38;10.05;;;9.50;81.70;;;;;;6188698;23;20001;-63
2023/12/13 20:36:53;;;;;;;15.00;9.73;;;9.50;81.60;;;;;;6188816;23;20114;-64
2023/12/13 20:39:19;;;;;;;17.50;10.30;;;9.50;81.60;;;;;;6217225;23;20031;-64
2023/12/13 20:41:46;;;;;;;15.48;9.38;;;9.50;81.60;;;;;;6218589;23;20414;-64
2023/12/13 20:44:22;;;;;;;19.60;10.88;;;9.50;81.50;;;;;;6218832;23;20015;-64
2023/12/13 20:46:57;;;;;;;16.80;11.13;;;9.50;81.30;;;;;;6218964;23;20000;-64
2023/12/13 20:49:26;;;;;;;15.52;9.60;;;9.40;80.90;;;;;;6219050;23;20015;-63
2023/12/13 20:51:54;;;;;;;14.25;9.05;;;9.40;81.00;;;;;;6218846;23;20438;-64
2023/12/13 20:54:24;;;;;;;13.25;8.32;;;9.30;81.20;;;;;;6218525;23;19997;-64
2023/12/13 20:56:55;;;;;;;13.90;9.13;;;9.30;81.30;;;;;;6218580;23;20026;-64
2023/12/13 20:59:23;;;;;;;24.65;12.70;;;9.30;81.30;;;;;;6218992;23;20406;-64
2023/12/13 21:01:54;;;;;;;29.17;14.40;;;9.40;81.30;;;;;;6218637;23;20084;-65
2023/12/13 21:04:26;;;;;;;16.70;10.05;;;9.40;81.30;;;;;;6219275;23;20028;-65
2023/12/13 21:06:58;;;;;;;18.77;10.57;;;9.40;81.30;;;;;;6218455;23;20087;-64
2023/12/13 21:09:24;;;;;;;17.75;11.43;;;9.40;81.30;;;;;;6218097;23;20000;-65
2023/12/13 21:11:51;;;;;;;18.58;11.60;;;9.30;81.20;;;;;;6218731;23;20000;-64
2023/12/13 21:14:19;;;;;;;15.43;9.82;;;9.30;81.10;;;;;;6218689;23;20001;-65
2023/12/13 21:16:46;;;;;;;15.70;10.50;;;9.30;81.10;;;;;;6217727;23;20001;-64
2023/12/13 21:19:15;;;;;;;15.00;9.57;;;9.30;80.90;;;;;;6218684;23;20084;-64
2023/12/13 21:21:41;;;;;;;13.77;9.15;;;9.30;80.80;;;;;;6218421;23;20005;-65
2023/12/13 21:24:10;;;;;;;14.32;8.70;;;9.20;80.90;;;;;;6218256;23;20345;-64
2023/12/13 21:26:39;;;;;;;16.17;9.63;;;9.10;80.80;;;;;;6218239;23;20132;-63
2023/12/13 21:29:09;;;;;;;16.75;9.77;;;9.10;80.80;;;;;;6192039;23;20413;-64
2023/12/13 21:31:42;;;;;;;15.20;10.05;;;9.10;80.90;;;;;;6218430;23;20000;-65
2023/12/13 21:34:15;;;;;;;16.83;10.32;;;9.00;81.00;;;;;;6218368;23;20004;-65
2023/12/13 21:36:47;;;;;;;18.05;11.85;;;9.00;81.00;;;;;;6218252;23;20005;-65
2023/12/13 21:39:13;;;;;;;17.48;11.73;;;9.00;81.00;;;;;;6191547;23;20008;-64
2023/12/13 21:41:42;;;;;;;16.48;10.70;;;8.90;81.00;;;;;;6218481;23;20024;-64
2023/12/13 21:44:11;;;;;;;18.20;11.65;;;8.90;81.10;;;;;;6218481;23;20000;-65
2023/12/13 21:46:39;;;;;;;19.40;11.88;;;9.00;81.10;;;;;;6218317;23;20011;-64
2023/12/13 21:49:08;;;;;;;21.90;12.93;;;8.90;81.10;;;;;;6217984;23;20008;-64
2023/12/13 21:51:35;;;;;;;18.92;12.95;;;8.90;81.10;;;;;;6218403;23;19997;-64
2023/12/13 21:54:04;;;;;;;22.90;15.02;;;8.90;81.00;;;;;;6217866;23;20001;-63
2023/12/13 21:56:32;;;;;;;20.42;13.75;;;8.90;81.00;;;;;;6217954;23;20012;-64
2023/12/13 21:58:59;;;;;;;18.40;12.57;;;8.90;81.00;;;;;;6218428;23;20000;-65
2023/12/13 22:01:25;;;;;;;20.85;13.48;;;8.90;80.90;;;;;;6217831;23;20445;-65
2023/12/13 22:03:51;;;;;;;18.27;12.43;;;8.90;81.00;;;;;;6217106;23;20001;-65
2023/12/13 22:06:18;;;;;;;18.63;11.55;;;8.90;81.00;;;;;;6217894;23;20011;-65
2023/12/13 22:08:44;;;;;;;18.30;10.90;;;8.90;81.00;;;;;;6217994;23;20076;-65
2023/12/13 22:11:14;;;;;;;19.08;11.65;;;8.90;81.00;;;;;;6167088;23;20079;-65
2023/12/13 22:13:40;;;;;;;21.67;11.75;;;8.90;80.90;;;;;;6218315;23;20028;-64
2023/12/13 22:16:11;;;;;;;15.10;10.25;;;8.90;80.80;;;;;;6218832;23;20004;-64
2023/12/13 22:18:39;;;;;;;17.23;11.00;;;8.80;80.70;;;;;;6218725;23;20062;-64
2023/12/13 22:21:06;;;;;;;17.02;10.70;;;8.80;80.70;;;;;;6218970;23;20347;-64
2023/12/13 22:23:33;;;;;;;16.20;10.88;;;8.80;80.80;;;;;;6192032;23;20131;-64
2023/12/13 22:25:59;;;;;;;18.40;11.57;;;8.70;80.90;;;;;;6218546;23;20001;-64
2023/12/13 22:28:26;;;;;;;18.63;12.07;;;8.70;80.90;;;;;;6218875;23;20005;-64
2023/12/13 22:30:52;;;;;;;20.33;13.15;;;8.70;81.00;;;;;;6218305;23;20395;-64
2023/12/13 22:33:17;;;;;;;25.70;17.02;;;8.70;81.10;;;;;;6218270;23;20080;-64
2023/12/13 22:35:44;;;;;;;25.85;16.10;;;8.70;81.00;;;;;;6218212;23;20073;-64
2023/12/13 22:38:10;;;;;;;25.85;16.83;;;8.70;81.00;;;;;;6218269;23;20383;-64
2023/12/13 22:40:36;;;;;;;23.38;15.52;;;8.70;81.10;;;;;;6218577;23;19996;-64
2023/12/13 22:43:02;;;;;;;26.73;16.83;;;8.70;81.10;;;;;;6218215;23;20001;-64
2023/12/13 22:45:28;;;;;;;21.85;13.98;;;8.70;81.10;;;;;;6218595;23;19996;-64
2023/12/13 22:47:54;;;;;;;21.70;14.82;;;8.70;81.00;;;;;;6218147;23;20000;-64
2023/12/13 22:50:21;;;;;;;22.95;14.35;;;8.70;80.90;;;;;;6218427;23;20441;-64
2023/12/13 22:52:47;;;;;;;21.58;12.38;;;8.70;81.00;;;;;;6218502;23;20011;-64
2023/12/13 22:55:13;;;;;;;20.67;14.02;;;8.60;80.90;;;;;;6218161;23;20294;-64
2023/12/13 22:57:39;;;;;;;21.48;12.73;;;8.60;80.80;;;;;;6217849;23;20423;-64
2023/12/13 23:00:16;;;;;;;19.50;13.25;;;8.60;80.90;;;;;;6218140;23;20054;-64
2023/12/13 23:02:42;;;;;;;18.55;12.65;;;8.60;80.90;;;;;;6218489;23;20054;-64
2023/12/13 23:05:08;;;;;;;22.45;13.88;;;8.60;81.00;;;;;;6218182;23;20005;-64
2023/12/13 23:07:34;;;;;;;24.30;14.88;;;8.60;81.00;;;;;;6220031;23;20000;-64
2023/12/13 23:10:00;;;;;;;22.38;14.60;;;8.50;80.90;;;;;;6220392;23;20000;-64
2023/12/13 23:12:26;;;;;;;22.58;15.38;;;8.50;81.00;;;;;;6220433;23;20058;-64
2023/12/13 23:14:52;;;;;;;20.80;13.63;;;8.50;81.00;;;;;;6220409;23;20032;-64
2023/12/13 23:17:18;;;;;;;22.10;14.43;;;8.50;81.00;;;;;;6220641;23;19997;-64
2023/12/13 23:19:44;;;;;;;24.63;14.80;;;8.50;81.10;;;;;;6169465;23;20092;-64
2023/12/13 23:22:10;;;;;;;22.55;13.98;;;8.60;81.10;;;;;;6220362;23;20005;-64
2023/12/13 23:24:35;;;;;;;21.27;13.30;;;8.50;81.20;;;;;;6219987;23;20012;-64
2023/12/13 23:27:02;;;;;;;20.70;12.68;;;8.50;81.10;;;;;;6219934;23;20063;-64
2023/12/13 23:29:27;;;;;;;19.75;13.38;;;8.60;81.10;;;;;;6220500;23;20032;-64
2023/12/13 23:31:53;;;;;;;20.73;12.93;;;8.60;81.10;;;;;;6219936;23;20371;-64
2023/12/13 23:34:19;;;;;;;19.63;12.88;;;8.60;81.10;;;;;;6220231;23;20001;-64
2023/12/13 23:36:45;;;;;;;21.77;13.57;;;8.50;81.10;;;;;;6220101;23;20005;-64
2023/12/13 23:39:11;;;;;;;20.02;14.20;;;8.60;81.20;;;;;;6220207;23;20039;-64
2023/12/13 23:41:37;;;;;;;22.98;14.75;;;8.50;81.20;;;;;;6219854;23;20001;-64
2023/12/13 23:44:03;;;;;;;22.23;15.00;;;8.50;81.30;;;;;;6220125;23;20027;-64
2023/12/13 23:46:29;;;;;;;26.13;15.80;;;8.50;81.30;;;;;;6219737;23;20402;-64
2023/12/13 23:48:57;;;;;;;27.58;17.15;;;8.50;81.30;;;;;;6220380;23;20000;-64
2023/12/13 23:51:23;;;;;;;29.52;17.25;;;8.60;81.40;;;;;;6220021;23;20028;-64
2023/12/13 23:53:49;;;;;;;25.70;16.73;;;8.60;81.40;;;;;;6219757;23;20007;-64
2023/12/13 23:56:19;;;;;;;24.15;14.90;;;8.60;81.50;;;;;;6219435;23;20343;-64
2023/12/13 23:58:45;;;;;;;35.00;18.73;;;8.60;81.40;;;;;;6194079;23;20004;-64
